sensor_id;sensor_type;location;lat;lon;timestamp;P1;durP1;ratioP1;P2;durP2;ratioP2
21128;SDS011;10722;51.910;8.352;2022-12-18T00:02:50;129.93;;;60.73;;
21128;SDS011;10722;51.910;8.352;2022-12-18T00:05:48;129.63;;;59.67;;
21128;SDS011;10722;51.910;8.352;2022-12-18T00:08:34;131.50;;;59.97;;
21128;SDS011;10722;51.910;8.352;2022-12-18T00:11:22;117.90;;;56.43;;
21128;SDS011;10722;51.910;8.352;2022-12-18T00:14:09;118.07;;;55.37;;
21128;SDS011;10722;51.910;8.352;2022-12-18T00:16:56;115.60;;;56.87;;
21128;SDS011;10722;51.910;8.352;2022-12-18T00:19:43;109.93;;;54.67;;
21128;SDS011;10722;51.910;8.352;2022-12-18T00:22:28;110.67;;;53.17;;
21128;SDS011;10722;51.910;8.352;2022-12-18T00:25:14;104.33;;;53.60;;
21128;SDS011;10722;51.910;8.352;2022-12-18T00:28:00;117.10;;;56.47;;
21128;SDS011;10722;51.910;8.352;2022-12-18T00:30:46;126.07;;;57.83;;
21128;SDS011;10722;51.910;8.352;2022-12-18T00:33:32;114.63;;;58.10;;
21128;SDS011;10722;51.910;8.352;2022-12-18T00:36:19;109.33;;;52.73;;
21128;SDS011;10722;51.910;8.352;2022-12-18T00:39:06;106.37;;;53.17;;
21128;SDS011;10722;51.910;8.352;2022-12-18T00:41:51;108.00;;;50.67;;
21128;SDS011;10722;51.910;8.352;2022-12-18T00:44:37;107.00;;;50.57;;
21128;SDS011;10722;51.910;8.352;2022-12-18T00:47:23;106.43;;;50.27;;
21128;SDS011;10722;51.910;8.352;2022-12-18T00:50:08;108.80;;;50.63;;
21128;SDS011;10722;51.910;8.352;2022-12-18T00:53:05;111.30;;;50.87;;
21128;SDS011;10722;51.910;8.352;2022-12-18T00:57:04;105.13;;;48.93;;
21128;SDS011;10722;51.910;8.352;2022-12-18T01:00:13;109.97;;;49.43;;
21128;SDS011;10722;51.910;8.352;2022-12-18T01:03:03;94.73;;;45.37;;
21128;SDS011;10722;51.910;8.352;2022-12-18T01:06:10;87.67;;;43.03;;
21128;SDS011;10722;51.910;8.352;2022-12-18T01:08:57;80.60;;;41.07;;
21128;SDS011;10722;51.910;8.352;2022-12-18T01:11:42;81.13;;;40.63;;
21128;SDS011;10722;51.910;8.352;2022-12-18T01:14:28;100.77;;;47.03;;
21128;SDS011;10722;51.910;8.352;2022-12-18T01:17:14;99.13;;;47.83;;
21128;SDS011;10722;51.910;8.352;2022-12-18T01:19:59;100.80;;;49.33;;
21128;SDS011;10722;51.910;8.352;2022-12-18T01:22:45;83.93;;;41.93;;
21128;SDS011;10722;51.910;8.352;2022-12-18T01:25:32;78.37;;;41.90;;
21128;SDS011;10722;51.910;8.352;2022-12-18T01:28:18;85.57;;;43.07;;
21128;SDS011;10722;51.910;8.352;2022-12-18T01:31:23;88.53;;;44.20;;
21128;SDS011;10722;51.910;8.352;2022-12-18T01:34:11;90.33;;;43.90;;
21128;SDS011;10722;51.910;8.352;2022-12-18T01:36:57;85.80;;;43.57;;
21128;SDS011;10722;51.910;8.352;2022-12-18T01:39:43;88.07;;;43.43;;
21128;SDS011;10722;51.910;8.352;2022-12-18T01:42:28;86.17;;;42.80;;
21128;SDS011;10722;51.910;8.352;2022-12-18T01:48:00;75.70;;;38.50;;
21128;SDS011;10722;51.910;8.352;2022-12-18T01:50:48;95.07;;;43.53;;
21128;SDS011;10722;51.910;8.352;2022-12-18T01:53:34;94.43;;;45.93;;
21128;SDS011;10722;51.910;8.352;2022-12-18T01:56:21;87.13;;;43.73;;
21128;SDS011;10722;51.910;8.352;2022-12-18T01:59:13;81.80;;;40.83;;
21128;SDS011;10722;51.910;8.352;2022-12-18T02:02:36;75.70;;;38.27;;
21128;SDS011;10722;51.910;8.352;2022-12-18T02:05:46;78.47;;;38.50;;
21128;SDS011;10722;51.910;8.352;2022-12-18T02:08:58;73.77;;;35.37;;
21128;SDS011;10722;51.910;8.352;2022-12-18T02:14:43;71.07;;;35.50;;
21128;SDS011;10722;51.910;8.352;2022-12-18T02:17:39;71.93;;;35.13;;
21128;SDS011;10722;51.910;8.352;2022-12-18T02:20:42;54.70;;;29.03;;
21128;SDS011;10722;51.910;8.352;2022-12-18T02:26:41;68.90;;;36.20;;
21128;SDS011;10722;51.910;8.352;2022-12-18T02:29:53;72.03;;;34.23;;
21128;SDS011;10722;51.910;8.352;2022-12-18T02:32:44;70.60;;;34.13;;
21128;SDS011;10722;51.910;8.352;2022-12-18T02:35:35;64.07;;;32.73;;
21128;SDS011;10722;51.910;8.352;2022-12-18T02:38:23;67.67;;;33.17;;
21128;SDS011;10722;51.910;8.352;2022-12-18T02:41:10;66.63;;;32.73;;
21128;SDS011;10722;51.910;8.352;2022-12-18T02:44:00;64.83;;;32.03;;
21128;SDS011;10722;51.910;8.352;2022-12-18T02:46:53;70.83;;;33.30;;
21128;SDS011;10722;51.910;8.352;2022-12-18T02:49:52;77.53;;;33.70;;
21128;SDS011;10722;51.910;8.352;2022-12-18T02:52:56;60.57;;;27.70;;
21128;SDS011;10722;51.910;8.352;2022-12-18T02:56:08;61.97;;;31.13;;
21128;SDS011;10722;51.910;8.352;2022-12-18T02:59:04;65.53;;;30.27;;
21128;SDS011;10722;51.910;8.352;2022-12-18T03:02:04;67.20;;;31.73;;
21128;SDS011;10722;51.910;8.352;2022-12-18T03:05:52;67.67;;;31.17;;
21128;SDS011;10722;51.910;8.352;2022-12-18T03:08:27;70.03;;;32.97;;
21128;SDS011;10722;51.910;8.352;2022-12-18T03:11:16;78.00;;;33.03;;
21128;SDS011;10722;51.910;8.352;2022-12-18T03:14:02;69.90;;;32.13;;
21128;SDS011;10722;51.910;8.352;2022-12-18T03:16:51;66.83;;;31.83;;
21128;SDS011;10722;51.910;8.352;2022-12-18T03:19:39;69.37;;;29.43;;
21128;SDS011;10722;51.910;8.352;2022-12-18T03:22:27;56.40;;;25.93;;
21128;SDS011;10722;51.910;8.352;2022-12-18T03:25:17;64.40;;;30.43;;
21128;SDS011;10722;51.910;8.352;2022-12-18T03:28:04;50.40;;;23.77;;
21128;SDS011;10722;51.910;8.352;2022-12-18T03:30:55;46.97;;;21.77;;
21128;SDS011;10722;51.910;8.352;2022-12-18T03:33:47;43.23;;;20.33;;
21128;SDS011;10722;51.910;8.352;2022-12-18T03:36:37;46.37;;;21.77;;
21128;SDS011;10722;51.910;8.352;2022-12-18T03:39:22;46.43;;;22.00;;
21128;SDS011;10722;51.910;8.352;2022-12-18T03:42:13;44.50;;;20.53;;
21128;SDS011;10722;51.910;8.352;2022-12-18T03:45:27;43.57;;;21.20;;
21128;SDS011;10722;51.910;8.352;2022-12-18T03:48:20;62.80;;;29.33;;
21128;SDS011;10722;51.910;8.352;2022-12-18T03:51:16;54.37;;;25.03;;
21128;SDS011;10722;51.910;8.352;2022-12-18T03:54:10;52.80;;;23.10;;
21128;SDS011;10722;51.910;8.352;2022-12-18T03:56:58;47.03;;;22.37;;
21128;SDS011;10722;51.910;8.352;2022-12-18T03:59:50;52.53;;;24.00;;
21128;SDS011;10722;51.910;8.352;2022-12-18T04:02:42;53.30;;;24.23;;
21128;SDS011;10722;51.910;8.352;2022-12-18T04:05:31;48.07;;;21.80;;
21128;SDS011;10722;51.910;8.352;2022-12-18T04:08:19;43.17;;;19.77;;
21128;SDS011;10722;51.910;8.352;2022-12-18T04:11:05;42.97;;;20.60;;
21128;SDS011;10722;51.910;8.352;2022-12-18T04:13:56;43.30;;;20.63;;
21128;SDS011;10722;51.910;8.352;2022-12-18T04:16:42;42.00;;;20.90;;
21128;SDS011;10722;51.910;8.352;2022-12-18T04:19:27;43.37;;;22.17;;
21128;SDS011;10722;51.910;8.352;2022-12-18T04:22:13;42.20;;;19.60;;
21128;SDS011;10722;51.910;8.352;2022-12-18T04:24:58;47.13;;;20.77;;
21128;SDS011;10722;51.910;8.352;2022-12-18T04:27:44;42.37;;;20.03;;
21128;SDS011;10722;51.910;8.352;2022-12-18T04:30:29;44.37;;;20.80;;
21128;SDS011;10722;51.910;8.352;2022-12-18T04:33:17;45.00;;;21.53;;
21128;SDS011;10722;51.910;8.352;2022-12-18T04:36:03;38.83;;;17.47;;
21128;SDS011;10722;51.910;8.352;2022-12-18T04:38:50;35.10;;;16.33;;
21128;SDS011;10722;51.910;8.352;2022-12-18T04:41:35;37.43;;;17.33;;
21128;SDS011;10722;51.910;8.352;2022-12-18T04:44:20;35.33;;;16.23;;
21128;SDS011;10722;51.910;8.352;2022-12-18T04:47:05;33.50;;;15.80;;
21128;SDS011;10722;51.910;8.352;2022-12-18T04:49:51;33.63;;;14.40;;
21128;SDS011;10722;51.910;8.352;2022-12-18T04:52:36;30.80;;;13.30;;
21128;SDS011;10722;51.910;8.352;2022-12-18T04:55:25;33.23;;;14.47;;
21128;SDS011;10722;51.910;8.352;2022-12-18T04:58:10;29.40;;;13.47;;
21128;SDS011;10722;51.910;8.352;2022-12-18T05:00:55;27.40;;;12.10;;
21128;SDS011;10722;51.910;8.352;2022-12-18T05:03:40;25.93;;;10.93;;
21128;SDS011;10722;51.910;8.352;2022-12-18T05:06:27;25.50;;;10.40;;
21128;SDS011;10722;51.910;8.352;2022-12-18T05:09:12;22.13;;;9.90;;
21128;SDS011;10722;51.910;8.352;2022-12-18T05:11:58;23.67;;;10.43;;
21128;SDS011;10722;51.910;8.352;2022-12-18T05:14:43;23.57;;;9.83;;
21128;SDS011;10722;51.910;8.352;2022-12-18T05:17:28;21.70;;;8.97;;
21128;SDS011;10722;51.910;8.352;2022-12-18T05:20:14;22.70;;;9.37;;
21128;SDS011;10722;51.910;8.352;2022-12-18T05:22:59;21.60;;;9.00;;
21128;SDS011;10722;51.910;8.352;2022-12-18T05:25:52;22.73;;;9.30;;
21128;SDS011;10722;51.910;8.352;2022-12-18T05:28:39;24.70;;;9.60;;
21128;SDS011;10722;51.910;8.352;2022-12-18T05:31:24;19.23;;;8.80;;
21128;SDS011;10722;51.910;8.352;2022-12-18T05:34:09;23.03;;;9.00;;
21128;SDS011;10722;51.910;8.352;2022-12-18T05:36:55;19.67;;;8.67;;
21128;SDS011;10722;51.910;8.352;2022-12-18T05:39:40;25.30;;;9.17;;
21128;SDS011;10722;51.910;8.352;2022-12-18T05:42:27;25.03;;;10.47;;
21128;SDS011;10722;51.910;8.352;2022-12-18T05:45:12;24.70;;;9.80;;
21128;SDS011;10722;51.910;8.352;2022-12-18T05:47:58;24.13;;;11.23;;
21128;SDS011;10722;51.910;8.352;2022-12-18T05:50:44;26.33;;;11.13;;
21128;SDS011;10722;51.910;8.352;2022-12-18T05:53:30;24.70;;;10.73;;
21128;SDS011;10722;51.910;8.352;2022-12-18T05:56:17;24.27;;;10.23;;
21128;SDS011;10722;51.910;8.352;2022-12-18T05:59:04;22.47;;;10.00;;
21128;SDS011;10722;51.910;8.352;2022-12-18T06:01:49;23.23;;;10.10;;
21128;SDS011;10722;51.910;8.352;2022-12-18T06:04:34;23.70;;;9.20;;
21128;SDS011;10722;51.910;8.352;2022-12-18T06:07:20;24.53;;;10.23;;
21128;SDS011;10722;51.910;8.352;2022-12-18T06:10:05;26.80;;;10.80;;
21128;SDS011;10722;51.910;8.352;2022-12-18T06:12:50;24.50;;;10.97;;
21128;SDS011;10722;51.910;8.352;2022-12-18T06:15:36;27.07;;;10.97;;
21128;SDS011;10722;51.910;8.352;2022-12-18T06:18:22;23.73;;;10.17;;
21128;SDS011;10722;51.910;8.352;2022-12-18T06:21:07;25.40;;;10.43;;
21128;SDS011;10722;51.910;8.352;2022-12-18T06:23:53;24.63;;;11.17;;
21128;SDS011;10722;51.910;8.352;2022-12-18T06:26:38;26.00;;;11.17;;
21128;SDS011;10722;51.910;8.352;2022-12-18T06:29:25;25.70;;;11.20;;
21128;SDS011;10722;51.910;8.352;2022-12-18T06:32:10;25.47;;;11.33;;
21128;SDS011;10722;51.910;8.352;2022-12-18T06:34:59;27.53;;;10.97;;
21128;SDS011;10722;51.910;8.352;2022-12-18T06:37:48;25.23;;;11.23;;
21128;SDS011;10722;51.910;8.352;2022-12-18T06:40:36;25.73;;;11.20;;
21128;SDS011;10722;51.910;8.352;2022-12-18T06:43:23;25.90;;;11.13;;
21128;SDS011;10722;51.910;8.352;2022-12-18T06:46:08;24.60;;;11.60;;
21128;SDS011;10722;51.910;8.352;2022-12-18T06:48:55;25.90;;;11.43;;
21128;SDS011;10722;51.910;8.352;2022-12-18T06:51:42;25.97;;;12.03;;
21128;SDS011;10722;51.910;8.352;2022-12-18T06:54:27;29.00;;;11.53;;
21128;SDS011;10722;51.910;8.352;2022-12-18T06:57:12;26.33;;;12.23;;
21128;SDS011;10722;51.910;8.352;2022-12-18T06:59:58;26.10;;;11.40;;
21128;SDS011;10722;51.910;8.352;2022-12-18T07:02:44;24.43;;;11.43;;
21128;SDS011;10722;51.910;8.352;2022-12-18T07:05:30;26.33;;;11.73;;
21128;SDS011;10722;51.910;8.352;2022-12-18T07:08:15;26.60;;;11.53;;
21128;SDS011;10722;51.910;8.352;2022-12-18T07:11:03;26.57;;;11.50;;
21128;SDS011;10722;51.910;8.352;2022-12-18T07:13:49;26.37;;;12.03;;
21128;SDS011;10722;51.910;8.352;2022-12-18T07:16:34;25.07;;;12.00;;
21128;SDS011;10722;51.910;8.352;2022-12-18T07:19:23;25.87;;;12.00;;
21128;SDS011;10722;51.910;8.352;2022-12-18T07:22:08;24.63;;;11.33;;
21128;SDS011;10722;51.910;8.352;2022-12-18T07:24:54;27.97;;;12.23;;
21128;SDS011;10722;51.910;8.352;2022-12-18T07:27:40;25.57;;;11.43;;
21128;SDS011;10722;51.910;8.352;2022-12-18T07:30:25;32.23;;;13.67;;
21128;SDS011;10722;51.910;8.352;2022-12-18T07:33:10;36.13;;;15.13;;
21128;SDS011;10722;51.910;8.352;2022-12-18T07:35:55;31.77;;;13.93;;
21128;SDS011;10722;51.910;8.352;2022-12-18T07:38:41;27.30;;;12.57;;
21128;SDS011;10722;51.910;8.352;2022-12-18T07:41:27;26.60;;;12.10;;
21128;SDS011;10722;51.910;8.352;2022-12-18T07:44:13;25.70;;;11.70;;
21128;SDS011;10722;51.910;8.352;2022-12-18T07:46:58;25.57;;;11.93;;
21128;SDS011;10722;51.910;8.352;2022-12-18T07:49:44;26.33;;;11.80;;
21128;SDS011;10722;51.910;8.352;2022-12-18T07:52:45;26.50;;;11.57;;
21128;SDS011;10722;51.910;8.352;2022-12-18T07:55:34;26.97;;;12.23;;
21128;SDS011;10722;51.910;8.352;2022-12-18T07:58:48;26.10;;;11.63;;
21128;SDS011;10722;51.910;8.352;2022-12-18T08:01:33;26.67;;;11.70;;
21128;SDS011;10722;51.910;8.352;2022-12-18T08:04:19;26.13;;;11.47;;
21128;SDS011;10722;51.910;8.352;2022-12-18T08:07:04;24.67;;;11.07;;
21128;SDS011;10722;51.910;8.352;2022-12-18T08:09:50;29.53;;;11.83;;
21128;SDS011;10722;51.910;8.352;2022-12-18T08:12:35;26.33;;;10.90;;
21128;SDS011;10722;51.910;8.352;2022-12-18T08:15:20;24.37;;;10.57;;
21128;SDS011;10722;51.910;8.352;2022-12-18T08:18:06;24.23;;;10.80;;
21128;SDS011;10722;51.910;8.352;2022-12-18T08:21:12;24.33;;;11.30;;
21128;SDS011;10722;51.910;8.352;2022-12-18T08:24:00;27.20;;;10.90;;
21128;SDS011;10722;51.910;8.352;2022-12-18T08:26:47;25.70;;;11.03;;
21128;SDS011;10722;51.910;8.352;2022-12-18T08:29:46;23.87;;;11.27;;
21128;SDS011;10722;51.910;8.352;2022-12-18T08:32:31;23.83;;;11.33;;
21128;SDS011;10722;51.910;8.352;2022-12-18T08:35:17;22.17;;;11.20;;
21128;SDS011;10722;51.910;8.352;2022-12-18T08:38:02;23.33;;;11.63;;
21128;SDS011;10722;51.910;8.352;2022-12-18T08:40:49;25.00;;;11.53;;
21128;SDS011;10722;51.910;8.352;2022-12-18T08:43:34;25.70;;;11.27;;
21128;SDS011;10722;51.910;8.352;2022-12-18T08:46:20;24.37;;;11.70;;
21128;SDS011;10722;51.910;8.352;2022-12-18T08:49:16;26.13;;;11.67;;
21128;SDS011;10722;51.910;8.352;2022-12-18T08:52:02;25.33;;;11.30;;
21128;SDS011;10722;51.910;8.352;2022-12-18T08:54:48;25.70;;;11.83;;
21128;SDS011;10722;51.910;8.352;2022-12-18T08:57:53;26.23;;;12.37;;
21128;SDS011;10722;51.910;8.352;2022-12-18T09:00:41;26.60;;;12.37;;
21128;SDS011;10722;51.910;8.352;2022-12-18T09:03:28;23.93;;;11.30;;
21128;SDS011;10722;51.910;8.352;2022-12-18T09:06:16;25.73;;;11.80;;
21128;SDS011;10722;51.910;8.352;2022-12-18T09:09:17;25.90;;;12.07;;
21128;SDS011;10722;51.910;8.352;2022-12-18T09:12:03;25.83;;;12.27;;
21128;SDS011;10722;51.910;8.352;2022-12-18T09:15:02;27.63;;;12.80;;
21128;SDS011;10722;51.910;8.352;2022-12-18T09:17:53;24.23;;;11.90;;
21128;SDS011;10722;51.910;8.352;2022-12-18T09:20:55;27.10;;;12.23;;
21128;SDS011;10722;51.910;8.352;2022-12-18T09:24:26;63.70;;;31.83;;
21128;SDS011;10722;51.910;8.352;2022-12-18T09:27:12;54.27;;;25.77;;
21128;SDS011;10722;51.910;8.352;2022-12-18T09:29:59;24.70;;;11.83;;
21128;SDS011;10722;51.910;8.352;2022-12-18T09:32:45;28.60;;;13.13;;
21128;SDS011;10722;51.910;8.352;2022-12-18T09:35:45;25.77;;;12.60;;
21128;SDS011;10722;51.910;8.352;2022-12-18T09:38:31;27.13;;;12.40;;
21128;SDS011;10722;51.910;8.352;2022-12-18T09:41:20;25.00;;;11.23;;
21128;SDS011;10722;51.910;8.352;2022-12-18T09:47:37;27.40;;;13.63;;
21128;SDS011;10722;51.910;8.352;2022-12-18T09:50:26;29.43;;;12.10;;
21128;SDS011;10722;51.910;8.352;2022-12-18T09:53:21;38.93;;;16.47;;
21128;SDS011;10722;51.910;8.352;2022-12-18T09:56:12;37.20;;;16.73;;
21128;SDS011;10722;51.910;8.352;2022-12-18T09:59:04;43.57;;;20.87;;
21128;SDS011;10722;51.910;8.352;2022-12-18T10:01:50;37.87;;;17.43;;
21128;SDS011;10722;51.910;8.352;2022-12-18T10:04:36;39.50;;;20.40;;
21128;SDS011;10722;51.910;8.352;2022-12-18T10:07:26;40.33;;;18.27;;
21128;SDS011;10722;51.910;8.352;2022-12-18T10:13:51;40.90;;;12.60;;
21128;SDS011;10722;51.910;8.352;2022-12-18T10:16:43;24.60;;;12.60;;
21128;SDS011;10722;51.910;8.352;2022-12-18T10:19:43;22.50;;;11.03;;
21128;SDS011;10722;51.910;8.352;2022-12-18T10:28:48;29.17;;;11.47;;
21128;SDS011;10722;51.910;8.352;2022-12-18T10:31:37;22.53;;;11.13;;
21128;SDS011;10722;51.910;8.352;2022-12-18T10:34:23;20.03;;;9.40;;
21128;SDS011;10722;51.910;8.352;2022-12-18T10:37:10;23.80;;;10.40;;
21128;SDS011;10722;51.910;8.352;2022-12-18T10:43:13;21.67;;;9.90;;
21128;SDS011;10722;51.910;8.352;2022-12-18T10:46:21;22.13;;;10.47;;
21128;SDS011;10722;51.910;8.352;2022-12-18T10:49:17;22.20;;;10.33;;
21128;SDS011;10722;51.910;8.352;2022-12-18T10:52:14;21.40;;;9.53;;
21128;SDS011;10722;51.910;8.352;2022-12-18T10:55:06;20.30;;;9.97;;
21128;SDS011;10722;51.910;8.352;2022-12-18T10:58:22;22.10;;;10.10;;
21128;SDS011;10722;51.910;8.352;2022-12-18T11:04:33;20.97;;;9.97;;
21128;SDS011;10722;51.910;8.352;2022-12-18T11:07:19;20.43;;;9.37;;
21128;SDS011;10722;51.910;8.352;2022-12-18T11:10:15;20.83;;;9.67;;
21128;SDS011;10722;51.910;8.352;2022-12-18T11:13:17;21.43;;;9.37;;
21128;SDS011;10722;51.910;8.352;2022-12-18T11:16:05;19.70;;;9.23;;
21128;SDS011;10722;51.910;8.352;2022-12-18T11:18:51;20.40;;;9.43;;
21128;SDS011;10722;51.910;8.352;2022-12-18T11:21:40;21.60;;;9.43;;
21128;SDS011;10722;51.910;8.352;2022-12-18T11:24:31;21.60;;;9.27;;
21128;SDS011;10722;51.910;8.352;2022-12-18T11:27:18;22.90;;;9.80;;
21128;SDS011;10722;51.910;8.352;2022-12-18T11:33:03;18.97;;;9.00;;
21128;SDS011;10722;51.910;8.352;2022-12-18T11:36:09;20.03;;;9.50;;
21128;SDS011;10722;51.910;8.352;2022-12-18T11:38:55;19.53;;;8.20;;
21128;SDS011;10722;51.910;8.352;2022-12-18T11:42:46;22.07;;;9.27;;
21128;SDS011;10722;51.910;8.352;2022-12-18T11:51:18;17.57;;;8.10;;
21128;SDS011;10722;51.910;8.352;2022-12-18T11:54:12;105.93;;;50.97;;
21128;SDS011;10722;51.910;8.352;2022-12-18T11:57:05;25.43;;;11.37;;
21128;SDS011;10722;51.910;8.352;2022-12-18T12:09:04;19.93;;;9.10;;
21128;SDS011;10722;51.910;8.352;2022-12-18T12:12:10;18.70;;;7.37;;
21128;SDS011;10722;51.910;8.352;2022-12-18T12:21:50;19.13;;;8.37;;
21128;SDS011;10722;51.910;8.352;2022-12-18T12:25:15;17.57;;;7.93;;
21128;SDS011;10722;51.910;8.352;2022-12-18T12:34:13;17.27;;;7.33;;
21128;SDS011;10722;51.910;8.352;2022-12-18T12:37:11;16.97;;;7.50;;
21128;SDS011;10722;51.910;8.352;2022-12-18T12:40:10;17.07;;;7.73;;
21128;SDS011;10722;51.910;8.352;2022-12-18T12:43:31;19.00;;;8.17;;
21128;SDS011;10722;51.910;8.352;2022-12-18T12:46:34;20.10;;;8.40;;
21128;SDS011;10722;51.910;8.352;2022-12-18T12:49:27;23.73;;;9.10;;
21128;SDS011;10722;51.910;8.352;2022-12-18T12:52:29;19.73;;;8.60;;
21128;SDS011;10722;51.910;8.352;2022-12-18T12:55:26;18.20;;;7.97;;
21128;SDS011;10722;51.910;8.352;2022-12-18T13:04:45;19.63;;;7.97;;
21128;SDS011;10722;51.910;8.352;2022-12-18T13:07:41;20.17;;;7.80;;
21128;SDS011;10722;51.910;8.352;2022-12-18T13:10:39;19.23;;;7.43;;
21128;SDS011;10722;51.910;8.352;2022-12-18T13:13:27;17.77;;;7.77;;
21128;SDS011;10722;51.910;8.352;2022-12-18T13:16:38;18.87;;;7.63;;
21128;SDS011;10722;51.910;8.352;2022-12-18T13:19:25;18.43;;;7.67;;
21128;SDS011;10722;51.910;8.352;2022-12-18T13:22:27;20.50;;;9.07;;
21128;SDS011;10722;51.910;8.352;2022-12-18T13:25:35;19.73;;;7.90;;
21128;SDS011;10722;51.910;8.352;2022-12-18T13:34:25;17.80;;;7.67;;
21128;SDS011;10722;51.910;8.352;2022-12-18T13:37:39;17.73;;;8.00;;
21128;SDS011;10722;51.910;8.352;2022-12-18T13:43:43;17.83;;;7.63;;
21128;SDS011;10722;51.910;8.352;2022-12-18T13:46:44;17.83;;;6.67;;
21128;SDS011;10722;51.910;8.352;2022-12-18T13:49:38;16.63;;;7.30;;
21128;SDS011;10722;51.910;8.352;2022-12-18T13:52:28;16.57;;;6.90;;
21128;SDS011;10722;51.910;8.352;2022-12-18T13:55:21;16.03;;;6.90;;
21128;SDS011;10722;51.910;8.352;2022-12-18T13:58:11;18.80;;;7.70;;
21128;SDS011;10722;51.910;8.352;2022-12-18T14:00:58;19.30;;;7.20;;
21128;SDS011;10722;51.910;8.352;2022-12-18T14:03:48;17.13;;;7.03;;
21128;SDS011;10722;51.910;8.352;2022-12-18T14:06:35;19.50;;;8.80;;
21128;SDS011;10722;51.910;8.352;2022-12-18T14:09:23;19.23;;;7.80;;
21128;SDS011;10722;51.910;8.352;2022-12-18T14:12:18;17.60;;;7.57;;
21128;SDS011;10722;51.910;8.352;2022-12-18T14:15:11;18.00;;;7.47;;
21128;SDS011;10722;51.910;8.352;2022-12-18T14:18:19;18.40;;;7.30;;
21128;SDS011;10722;51.910;8.352;2022-12-18T14:49:24;17.37;;;6.37;;
21128;SDS011;10722;51.910;8.352;2022-12-18T14:52:20;17.00;;;6.63;;
21128;SDS011;10722;51.910;8.352;2022-12-18T14:55:16;18.47;;;7.27;;
21128;SDS011;10722;51.910;8.352;2022-12-18T14:58:04;18.77;;;6.70;;
21128;SDS011;10722;51.910;8.352;2022-12-18T15:00:52;16.00;;;6.60;;
21128;SDS011;10722;51.910;8.352;2022-12-18T15:03:42;18.93;;;7.53;;
21128;SDS011;10722;51.910;8.352;2022-12-18T15:06:30;23.47;;;10.50;;
21128;SDS011;10722;51.910;8.352;2022-12-18T15:09:23;21.23;;;8.93;;
21128;SDS011;10722;51.910;8.352;2022-12-18T15:12:22;20.37;;;7.70;;
21128;SDS011;10722;51.910;8.352;2022-12-18T15:18:18;17.70;;;7.37;;
21128;SDS011;10722;51.910;8.352;2022-12-18T15:21:11;18.73;;;7.43;;
21128;SDS011;10722;51.910;8.352;2022-12-18T15:24:13;17.10;;;7.70;;
21128;SDS011;10722;51.910;8.352;2022-12-18T15:30:36;20.73;;;8.23;;
21128;SDS011;10722;51.910;8.352;2022-12-18T15:33:26;17.60;;;7.97;;
21128;SDS011;10722;51.910;8.352;2022-12-18T15:40:04;20.70;;;9.20;;
21128;SDS011;10722;51.910;8.352;2022-12-18T15:43:07;18.87;;;8.67;;
21128;SDS011;10722;51.910;8.352;2022-12-18T15:46:25;22.40;;;9.33;;
21128;SDS011;10722;51.910;8.352;2022-12-18T15:49:21;21.13;;;10.07;;
21128;SDS011;10722;51.910;8.352;2022-12-18T15:52:38;18.90;;;9.10;;
21128;SDS011;10722;51.910;8.352;2022-12-18T15:55:52;21.00;;;9.70;;
21128;SDS011;10722;51.910;8.352;2022-12-18T15:58:50;21.57;;;9.30;;
21128;SDS011;10722;51.910;8.352;2022-12-18T16:02:07;23.73;;;9.37;;
21128;SDS011;10722;51.910;8.352;2022-12-18T16:05:34;22.90;;;9.10;;
21128;SDS011;10722;51.910;8.352;2022-12-18T16:08:24;22.23;;;9.97;;
21128;SDS011;10722;51.910;8.352;2022-12-18T16:11:20;23.43;;;10.70;;
21128;SDS011;10722;51.910;8.352;2022-12-18T16:14:26;22.73;;;10.53;;
21128;SDS011;10722;51.910;8.352;2022-12-18T16:17:50;22.60;;;10.13;;
21128;SDS011;10722;51.910;8.352;2022-12-18T16:20:48;24.07;;;10.40;;
21128;SDS011;10722;51.910;8.352;2022-12-18T16:23:35;25.90;;;10.93;;
21128;SDS011;10722;51.910;8.352;2022-12-18T16:26:35;25.00;;;11.13;;
21128;SDS011;10722;51.910;8.352;2022-12-18T16:29:28;25.67;;;12.07;;
21128;SDS011;10722;51.910;8.352;2022-12-18T16:32:15;25.57;;;11.37;;
21128;SDS011;10722;51.910;8.352;2022-12-18T16:35:03;26.90;;;12.90;;
21128;SDS011;10722;51.910;8.352;2022-12-18T16:37:49;28.20;;;12.20;;
21128;SDS011;10722;51.910;8.352;2022-12-18T16:40:35;29.07;;;13.47;;
21128;SDS011;10722;51.910;8.352;2022-12-18T16:43:22;27.93;;;13.03;;
21128;SDS011;10722;51.910;8.352;2022-12-18T16:46:12;26.00;;;12.70;;
21128;SDS011;10722;51.910;8.352;2022-12-18T16:49:01;35.53;;;13.10;;
21128;SDS011;10722;51.910;8.352;2022-12-18T16:51:48;25.23;;;12.60;;
21128;SDS011;10722;51.910;8.352;2022-12-18T16:54:38;26.33;;;12.83;;
21128;SDS011;10722;51.910;8.352;2022-12-18T16:57:39;26.20;;;12.77;;
21128;SDS011;10722;51.910;8.352;2022-12-18T17:00:24;26.90;;;13.40;;
21128;SDS011;10722;51.910;8.352;2022-12-18T17:03:09;26.20;;;12.67;;
21128;SDS011;10722;51.910;8.352;2022-12-18T17:06:00;33.10;;;17.03;;
21128;SDS011;10722;51.910;8.352;2022-12-18T17:08:48;29.53;;;12.90;;
21128;SDS011;10722;51.910;8.352;2022-12-18T17:11:40;29.47;;;13.80;;
21128;SDS011;10722;51.910;8.352;2022-12-18T17:14:25;29.63;;;14.10;;
21128;SDS011;10722;51.910;8.352;2022-12-18T17:17:11;29.00;;;14.23;;
21128;SDS011;10722;51.910;8.352;2022-12-18T17:20:07;30.37;;;14.97;;
21128;SDS011;10722;51.910;8.352;2022-12-18T17:22:53;35.10;;;17.30;;
21128;SDS011;10722;51.910;8.352;2022-12-18T17:25:40;28.03;;;14.40;;
21128;SDS011;10722;51.910;8.352;2022-12-18T17:28:26;29.30;;;14.93;;
21128;SDS011;10722;51.910;8.352;2022-12-18T17:31:13;30.03;;;14.63;;
21128;SDS011;10722;51.910;8.352;2022-12-18T17:34:02;34.23;;;14.77;;
21128;SDS011;10722;51.910;8.352;2022-12-18T17:36:49;32.53;;;16.60;;
21128;SDS011;10722;51.910;8.352;2022-12-18T17:39:38;32.97;;;16.30;;
21128;SDS011;10722;51.910;8.352;2022-12-18T17:42:24;32.10;;;16.87;;
21128;SDS011;10722;51.910;8.352;2022-12-18T17:45:10;35.03;;;18.00;;
21128;SDS011;10722;51.910;8.352;2022-12-18T17:47:56;36.17;;;18.20;;
21128;SDS011;10722;51.910;8.352;2022-12-18T17:50:46;38.30;;;19.17;;
21128;SDS011;10722;51.910;8.352;2022-12-18T17:53:33;36.80;;;19.17;;
21128;SDS011;10722;51.910;8.352;2022-12-18T17:56:24;42.97;;;19.60;;
21128;SDS011;10722;51.910;8.352;2022-12-18T17:59:15;36.27;;;19.23;;
21128;SDS011;10722;51.910;8.352;2022-12-18T18:02:02;41.47;;;19.70;;
21128;SDS011;10722;51.910;8.352;2022-12-18T18:05:01;42.40;;;22.00;;
21128;SDS011;10722;51.910;8.352;2022-12-18T18:07:55;39.10;;;19.83;;
21128;SDS011;10722;51.910;8.352;2022-12-18T18:10:41;41.57;;;20.63;;
21128;SDS011;10722;51.910;8.352;2022-12-18T18:13:26;43.20;;;21.87;;
21128;SDS011;10722;51.910;8.352;2022-12-18T18:16:20;40.47;;;21.17;;
21128;SDS011;10722;51.910;8.352;2022-12-18T18:19:07;41.67;;;20.93;;
21128;SDS011;10722;51.910;8.352;2022-12-18T18:21:59;43.47;;;21.33;;
21128;SDS011;10722;51.910;8.352;2022-12-18T18:24:45;39.53;;;20.40;;
21128;SDS011;10722;51.910;8.352;2022-12-18T18:27:31;41.93;;;21.37;;
21128;SDS011;10722;51.910;8.352;2022-12-18T18:30:22;44.63;;;21.30;;
21128;SDS011;10722;51.910;8.352;2022-12-18T18:33:08;45.07;;;23.67;;
21128;SDS011;10722;51.910;8.352;2022-12-18T18:35:56;43.60;;;22.57;;
21128;SDS011;10722;51.910;8.352;2022-12-18T18:38:42;43.13;;;20.30;;
21128;SDS011;10722;51.910;8.352;2022-12-18T18:41:32;46.10;;;23.37;;